createdAt,value
2023-03-24T00:02:17.160Z,16.50
2023-03-24T00:04:49.658Z,16.50
2023-03-24T00:07:19.436Z,16.50
2023-03-24T00:09:48.687Z,16.50
2023-03-24T00:12:19.525Z,16.50
2023-03-24T00:14:48.795Z,16.50
2023-03-24T00:17:18.482Z,16.50
2023-03-24T00:19:47.802Z,16.50
2023-03-24T00:22:17.427Z,16.50
2023-03-24T00:24:47.440Z,16.50
2023-03-24T00:27:18.739Z,16.50
2023-03-24T00:29:48.273Z,16.40
2023-03-24T00:32:18.627Z,16.50
2023-03-24T00:34:49.553Z,16.50
2023-03-24T00:37:18.892Z,16.50
2023-03-24T00:39:48.916Z,16.50
2023-03-24T00:42:19.449Z,16.40
2023-03-24T00:44:48.541Z,16.50
2023-03-24T00:47:26.170Z,16.50
2023-03-24T00:49:57.839Z,16.40
2023-03-24T00:52:33.887Z,16.40
2023-03-24T00:55:05.158Z,16.40
2023-03-24T00:57:36.166Z,16.40
2023-03-24T01:00:12.860Z,16.40
2023-03-24T01:02:43.616Z,16.40
2023-03-24T01:05:14.558Z,16.40
2023-03-24T01:07:43.740Z,16.40
2023-03-24T01:10:15.172Z,16.40
2023-03-24T01:12:45.961Z,16.40
2023-03-24T01:15:16.576Z,16.40
2023-03-24T01:17:47.212Z,16.50
2023-03-24T01:20:17.717Z,16.50
2023-03-24T01:22:46.894Z,16.40
2023-03-24T01:25:18.444Z,16.40
2023-03-24T01:27:50.354Z,16.40
2023-03-24T01:30:22.653Z,16.40
2023-03-24T01:32:53.138Z,16.40
2023-03-24T01:35:26.956Z,16.40
2023-03-24T01:37:58.158Z,16.40
2023-03-24T01:40:30.404Z,16.40
2023-03-24T01:43:01.354Z,16.40
2023-03-24T01:46:15.784Z,16.40
2023-03-24T01:48:50.275Z,16.40
2023-03-24T01:51:23.551Z,16.40
2023-03-24T01:53:55.591Z,16.40
2023-03-24T01:56:27.194Z,16.40
2023-03-24T01:59:01.056Z,16.30
2023-03-24T02:01:40.063Z,16.30
2023-03-24T02:04:45.458Z,16.30
2023-03-24T02:07:24.521Z,16.30
2023-03-24T02:09:54.026Z,16.30
2023-03-24T02:12:23.277Z,16.30
2023-03-24T02:14:55.833Z,16.30
2023-03-24T02:17:57.251Z,16.30
2023-03-24T02:20:50.887Z,16.20
2023-03-24T02:23:55.777Z,16.20
2023-03-24T02:26:49.297Z,16.20
2023-03-24T02:29:47.486Z,16.10
2023-03-24T02:33:06.557Z,16.00
2023-03-24T02:36:04.879Z,16.00
2023-03-24T02:39:20.000Z,15.90
2023-03-24T02:41:56.436Z,15.90
2023-03-24T02:44:31.829Z,15.80
2023-03-24T02:47:06.926Z,15.80
2023-03-24T02:49:44.730Z,15.80
2023-03-24T02:52:21.628Z,15.70
2023-03-24T02:55:00.358Z,15.70
2023-03-24T02:57:36.080Z,15.70
2023-03-24T03:00:33.148Z,15.70
2023-03-24T03:03:34.435Z,15.70
2023-03-24T03:06:08.266Z,15.70
2023-03-24T03:08:39.952Z,15.70
2023-03-24T03:11:13.328Z,15.70
2023-03-24T03:13:49.614Z,15.70
2023-03-24T03:16:25.315Z,15.70
2023-03-24T03:18:59.927Z,15.70
2023-03-24T03:21:39.032Z,15.70
2023-03-24T03:24:12.252Z,15.60
2023-03-24T03:26:42.899Z,15.60
2023-03-24T03:29:21.907Z,15.60
2023-03-24T03:31:59.223Z,15.70
2023-03-24T03:34:35.904Z,15.60
2023-03-24T03:37:09.287Z,15.70
2023-03-24T03:39:43.499Z,15.60
2023-03-24T03:42:14.205Z,15.70
2023-03-24T03:44:45.639Z,15.70
2023-03-24T03:47:16.182Z,15.70
2023-03-24T03:49:47.995Z,15.70
2023-03-24T03:52:17.953Z,15.70
2023-03-24T03:54:49.337Z,15.70
2023-03-24T03:57:21.490Z,15.70
2023-03-24T04:00:26.318Z,15.70
2023-03-24T04:03:44.834Z,15.70
2023-03-24T04:06:25.219Z,15.70
2023-03-24T04:09:04.534Z,15.70
2023-03-24T04:11:54.034Z,15.70
2023-03-24T04:14:42.077Z,15.70
2023-03-24T04:17:49.206Z,15.70
2023-03-24T04:20:46.900Z,15.60
2023-03-24T04:23:28.747Z,15.60
2023-03-24T04:26:11.301Z,15.60
2023-03-24T04:28:48.470Z,15.60
2023-03-24T04:31:25.958Z,15.60
2023-03-24T04:34:03.344Z,15.60
2023-03-24T04:36:42.488Z,15.50
2023-03-24T04:39:38.844Z,15.50
2023-03-24T04:42:17.699Z,15.50
2023-03-24T04:44:51.414Z,15.50
2023-03-24T04:47:44.193Z,15.50
2023-03-24T04:50:31.703Z,15.50
2023-03-24T04:53:03.879Z,15.50
2023-03-24T04:55:48.522Z,15.50
2023-03-24T04:58:21.020Z,15.50
2023-03-24T05:00:51.278Z,15.40
2023-03-24T05:03:20.440Z,15.40
2023-03-24T05:05:52.304Z,15.40
2023-03-24T05:08:22.133Z,15.40
2023-03-24T05:10:52.467Z,15.40
2023-03-24T05:13:21.997Z,15.40
2023-03-24T05:15:58.202Z,15.30
2023-03-24T05:18:33.322Z,15.30
2023-03-24T05:21:03.542Z,15.40
2023-03-24T05:23:32.436Z,15.40
2023-03-24T05:26:01.405Z,15.30
2023-03-24T05:28:33.262Z,15.30
2023-03-24T05:31:02.631Z,15.30
2023-03-24T05:33:49.756Z,15.30
2023-03-24T05:36:22.860Z,15.40
2023-03-24T05:38:57.050Z,15.40
2023-03-24T05:41:34.072Z,15.40
2023-03-24T05:44:05.303Z,15.40
2023-03-24T05:46:34.183Z,15.50
2023-03-24T05:49:05.830Z,15.50
2023-03-24T05:51:39.450Z,15.50
2023-03-24T05:54:09.514Z,15.50
2023-03-24T05:56:42.132Z,15.60
2023-03-24T05:59:29.707Z,15.60
2023-03-24T06:02:17.560Z,15.60
2023-03-24T06:05:01.602Z,15.70
2023-03-24T06:07:32.288Z,15.70
2023-03-24T06:10:03.419Z,15.70
2023-03-24T06:12:41.399Z,15.70
2023-03-24T06:15:12.140Z,15.80
2023-03-24T06:17:43.195Z,15.80
2023-03-24T06:20:22.717Z,15.80
2023-03-24T06:23:04.078Z,15.80
2023-03-24T06:26:01.251Z,15.80
2023-03-24T06:28:34.492Z,15.80
2023-03-24T06:31:14.736Z,15.70
2023-03-24T06:33:43.959Z,15.70
2023-03-24T06:36:14.425Z,15.70
2023-03-24T06:38:46.705Z,15.70
2023-03-24T06:41:20.186Z,15.70
2023-03-24T06:43:53.205Z,15.70
2023-03-24T06:46:22.520Z,15.70
2023-03-24T06:48:52.088Z,15.70
2023-03-24T06:51:22.016Z,15.70
2023-03-24T06:53:52.429Z,15.70
2023-03-24T06:56:23.940Z,15.70
2023-03-24T06:58:58.509Z,15.80
2023-03-24T07:01:36.218Z,15.80
2023-03-24T07:04:25.845Z,15.80
2023-03-24T07:07:19.176Z,15.80
2023-03-24T07:09:51.365Z,15.90
2023-03-24T07:12:20.747Z,15.90
2023-03-24T07:14:52.047Z,16.00
2023-03-24T07:17:22.680Z,16.00
2023-03-24T07:20:11.900Z,16.10
2023-03-24T07:22:51.498Z,16.10
2023-03-24T07:25:41.255Z,16.20
2023-03-24T07:28:28.144Z,16.20
2023-03-24T07:30:57.471Z,16.20
2023-03-24T07:33:27.560Z,16.30
2023-03-24T07:35:57.262Z,16.30
2023-03-24T07:38:27.874Z,16.30
2023-03-24T07:41:03.250Z,16.30
2023-03-24T07:43:35.192Z,16.30
2023-03-24T07:46:11.016Z,16.30
2023-03-24T07:48:41.157Z,16.30
2023-03-24T07:51:10.673Z,16.30
2023-03-24T07:53:50.052Z,16.30
2023-03-24T07:56:43.014Z,16.30
2023-03-24T07:59:14.462Z,16.40
2023-03-24T08:01:56.717Z,16.30
2023-03-24T08:04:39.006Z,16.30
2023-03-24T08:07:21.138Z,16.30
2023-03-24T08:09:50.144Z,16.30
2023-03-24T08:12:20.981Z,16.30
2023-03-24T08:14:50.120Z,16.30
2023-03-24T08:17:19.541Z,16.30
2023-03-24T08:19:59.011Z,16.30
2023-03-24T08:22:29.498Z,16.30
2023-03-24T08:24:58.517Z,16.30
2023-03-24T08:27:28.925Z,16.30
2023-03-24T08:29:58.110Z,16.30
2023-03-24T08:32:27.318Z,16.30
2023-03-24T08:34:58.094Z,16.20
2023-03-24T08:37:27.208Z,16.30
2023-03-24T08:39:58.757Z,16.30
2023-03-24T08:42:29.260Z,16.30
2023-03-24T08:44:58.319Z,16.30
2023-03-24T08:47:27.336Z,16.40
2023-03-24T08:49:58.772Z,16.40
2023-03-24T08:52:27.858Z,16.50
2023-03-24T08:54:57.325Z,16.50
2023-03-24T08:57:26.562Z,16.50
2023-03-24T08:59:57.202Z,16.50
2023-03-24T09:02:26.188Z,16.60
2023-03-24T09:04:56.067Z,16.60
2023-03-24T09:07:25.304Z,16.60
2023-03-24T09:09:54.505Z,16.60
2023-03-24T09:12:24.442Z,16.50
2023-03-24T09:14:53.691Z,16.50
2023-03-24T09:17:24.155Z,16.50
2023-03-24T09:19:55.201Z,16.50
2023-03-24T09:22:24.263Z,16.50
2023-03-24T09:24:53.452Z,16.50
2023-03-24T09:27:23.296Z,16.50
2023-03-24T09:29:53.815Z,16.50
2023-03-24T09:32:24.284Z,16.50
2023-03-24T09:34:53.369Z,16.50
2023-03-24T09:37:22.391Z,16.50
2023-03-24T09:39:51.651Z,16.50
2023-03-24T09:42:24.220Z,16.50
2023-03-24T09:44:56.433Z,16.50
2023-03-24T09:47:30.444Z,16.50
2023-03-24T09:50:03.788Z,16.50
2023-03-24T09:52:37.164Z,16.50
2023-03-24T09:55:10.727Z,16.60
2023-03-24T09:57:42.483Z,16.50
2023-03-24T10:00:18.890Z,16.50
2023-03-24T10:02:51.977Z,16.50
2023-03-24T10:05:28.366Z,16.50
2023-03-24T10:08:00.747Z,16.50
2023-03-24T10:10:37.077Z,16.50
2023-03-24T10:13:08.916Z,16.50
2023-03-24T10:15:43.724Z,16.50
2023-03-24T10:18:29.889Z,16.50
2023-03-24T10:21:07.569Z,16.60
2023-03-24T10:23:41.804Z,16.50
2023-03-24T10:26:31.311Z,16.50
2023-03-24T10:29:22.140Z,16.50
2023-03-24T10:31:54.501Z,16.50
2023-03-24T10:34:29.722Z,16.50
2023-03-24T10:37:00.697Z,16.50
2023-03-24T10:39:41.888Z,16.50
2023-03-24T10:42:18.279Z,16.40
2023-03-24T10:44:51.333Z,16.40
2023-03-24T10:47:25.342Z,16.40
2023-03-24T10:49:59.436Z,16.40
2023-03-24T10:52:29.416Z,16.40
2023-03-24T10:55:03.875Z,16.50
2023-03-24T10:57:33.730Z,16.50
2023-03-24T11:00:10.901Z,16.50
2023-03-24T11:02:43.524Z,16.60
2023-03-24T11:05:22.495Z,16.70
2023-03-24T11:07:53.758Z,16.80
2023-03-24T11:10:27.337Z,16.90
2023-03-24T11:13:05.010Z,16.90
2023-03-24T11:15:37.421Z,17.00
2023-03-24T11:18:16.392Z,17.00
2023-03-24T11:20:51.182Z,17.00
2023-03-24T11:23:26.232Z,17.00
2023-03-24T11:26:07.925Z,17.10
2023-03-24T11:28:41.070Z,17.20
2023-03-24T11:31:19.102Z,17.20
2023-03-24T11:33:56.546Z,17.30
2023-03-24T11:36:45.473Z,17.40
2023-03-24T11:39:19.469Z,17.40
2023-03-24T11:42:03.418Z,17.50
2023-03-24T11:44:43.475Z,17.50
2023-03-24T11:47:17.824Z,17.50
2023-03-24T11:49:52.113Z,17.50
2023-03-24T11:52:28.781Z,17.60
2023-03-24T11:54:57.957Z,17.60
2023-03-24T11:57:52.373Z,17.60
2023-03-24T12:00:28.433Z,17.60
2023-03-24T12:03:22.480Z,17.70
2023-03-24T12:05:58.194Z,17.80
2023-03-24T12:08:40.084Z,17.80
2023-03-24T12:11:17.458Z,18.00
2023-03-24T12:13:51.437Z,18.30
2023-03-24T12:16:41.278Z,18.80
2023-03-24T12:19:41.473Z,19.10
2023-03-24T12:22:21.073Z,19.50
2023-03-24T12:25:19.255Z,19.80
2023-03-24T12:27:57.201Z,20.00
2023-03-24T12:30:32.190Z,20.10
2023-03-24T12:33:23.580Z,20.10
2023-03-24T12:36:04.706Z,19.90
2023-03-24T12:38:46.795Z,19.80
2023-03-24T12:41:30.996Z,19.70
2023-03-24T12:44:26.658Z,19.60
2023-03-24T12:47:04.663Z,19.50
2023-03-24T12:49:58.288Z,19.30
2023-03-24T12:52:51.150Z,19.20
2023-03-24T12:55:34.252Z,19.10
2023-03-24T12:58:12.013Z,19.00
2023-03-24T13:00:45.825Z,18.90
2023-03-24T13:03:20.096Z,18.90
2023-03-24T13:05:51.935Z,18.70
2023-03-24T13:08:29.599Z,18.70
2023-03-24T13:11:05.366Z,18.60
2023-03-24T13:13:41.025Z,18.50
2023-03-24T13:16:15.444Z,18.40
2023-03-24T13:18:47.154Z,18.40
2023-03-24T13:21:18.755Z,18.30
2023-03-24T13:23:54.872Z,18.30
2023-03-24T13:26:35.475Z,18.30
2023-03-24T13:29:41.840Z,18.20
2023-03-24T13:32:30.114Z,18.20
2023-03-24T13:35:03.860Z,18.20
2023-03-24T13:37:37.729Z,18.20
2023-03-24T13:40:12.065Z,18.10
2023-03-24T13:42:46.623Z,18.10
2023-03-24T13:45:27.873Z,18.10
2023-03-24T13:48:07.072Z,18.10
2023-03-24T13:50:39.280Z,18.10
2023-03-24T13:53:15.012Z,18.10
2023-03-24T13:55:50.419Z,18.10
2023-03-24T13:58:23.258Z,18.00
2023-03-24T14:01:18.100Z,17.90
2023-03-24T14:04:08.936Z,17.80
2023-03-24T14:06:48.591Z,17.60
2023-03-24T14:09:21.154Z,17.40
2023-03-24T14:12:18.801Z,17.20
2023-03-24T14:15:18.261Z,17.10
2023-03-24T14:17:50.814Z,17.00
2023-03-24T14:20:33.322Z,16.80
2023-03-24T14:23:04.623Z,16.70
2023-03-24T14:25:36.778Z,16.60
2023-03-24T14:28:35.614Z,16.50
2023-03-24T14:31:13.252Z,16.40
2023-03-24T14:34:01.914Z,16.40
2023-03-24T14:36:35.102Z,16.30
2023-03-24T14:39:13.124Z,16.20
2023-03-24T14:41:44.263Z,16.20
2023-03-24T14:44:13.442Z,16.20
2023-03-24T14:46:44.758Z,16.10
2023-03-24T14:49:24.576Z,16.10
2023-03-24T14:52:01.917Z,16.10
2023-03-24T14:54:38.612Z,16.00
2023-03-24T14:57:09.827Z,16.00
2023-03-24T14:59:47.710Z,15.90
2023-03-24T15:02:34.200Z,15.90
2023-03-24T15:05:26.140Z,15.90
2023-03-24T15:08:22.364Z,15.90
2023-03-24T15:10:54.637Z,16.00
2023-03-24T15:13:32.871Z,16.00
2023-03-24T15:16:04.259Z,16.00
2023-03-24T15:18:34.004Z,16.00
2023-03-24T15:21:15.619Z,15.90
2023-03-24T15:23:48.709Z,15.90
2023-03-24T15:26:19.813Z,15.90
2023-03-24T15:28:54.374Z,15.90
2023-03-24T15:31:25.188Z,15.90
2023-03-24T15:33:54.204Z,15.90
2023-03-24T15:36:25.508Z,16.00
2023-03-24T15:38:54.493Z,16.00
2023-03-24T15:41:24.266Z,16.00
2023-03-24T15:43:54.777Z,15.90
2023-03-24T15:46:27.708Z,16.00
2023-03-24T15:48:59.158Z,16.00
2023-03-24T15:51:50.584Z,16.00
2023-03-24T15:54:23.394Z,16.00
2023-03-24T15:57:12.459Z,16.00
2023-03-24T15:59:46.907Z,16.10
2023-03-24T16:02:26.093Z,16.10
2023-03-24T16:05:10.544Z,16.00
2023-03-24T16:07:43.010Z,16.00
2023-03-24T16:10:32.712Z,16.00
2023-03-24T16:13:14.512Z,16.00
2023-03-24T16:15:45.686Z,16.10
2023-03-24T16:18:21.371Z,16.10
2023-03-24T16:20:51.842Z,16.10
2023-03-24T16:23:23.594Z,16.10
2023-03-24T16:25:53.541Z,16.10
2023-03-24T16:28:25.172Z,16.10
2023-03-24T16:30:59.374Z,16.10
2023-03-24T16:33:30.232Z,16.10
2023-03-24T16:35:59.642Z,16.10
2023-03-24T16:38:30.336Z,16.10
2023-03-24T16:40:59.346Z,16.10
2023-03-24T16:43:29.704Z,16.10
2023-03-24T16:45:58.861Z,16.00
2023-03-24T16:48:28.009Z,16.00
2023-03-24T16:50:58.165Z,16.00
2023-03-24T16:53:27.153Z,16.00
2023-03-24T16:55:57.513Z,16.00
2023-03-24T16:58:27.466Z,16.00
2023-03-24T17:00:58.775Z,16.00
2023-03-24T17:03:29.646Z,16.00
2023-03-24T17:05:59.401Z,16.00
2023-03-24T17:08:28.427Z,16.00
2023-03-24T17:10:58.867Z,16.00
2023-03-24T17:13:27.774Z,15.90
2023-03-24T17:15:57.497Z,15.90
2023-03-24T17:18:26.543Z,15.90
2023-03-24T17:20:55.636Z,15.90
2023-03-24T17:23:24.797Z,15.80
2023-03-24T17:25:54.327Z,15.80
2023-03-24T17:28:24.754Z,15.90
2023-03-24T17:30:53.928Z,15.90
2023-03-24T17:33:23.161Z,15.80
2023-03-24T17:35:52.421Z,15.80
2023-03-24T17:38:21.569Z,15.80
2023-03-24T17:40:59.248Z,15.80
2023-03-24T17:43:29.886Z,15.80
2023-03-24T17:45:59.296Z,15.70
2023-03-24T17:48:29.153Z,15.80
2023-03-24T17:50:58.563Z,15.70
2023-03-24T17:53:27.996Z,15.70
2023-03-24T17:55:59.233Z,15.60
2023-03-24T17:58:30.032Z,15.60
2023-03-24T18:01:08.384Z,15.60
2023-03-24T18:03:38.307Z,15.50
2023-03-24T18:06:08.945Z,15.50
2023-03-24T18:08:38.914Z,15.50
2023-03-24T18:11:09.842Z,15.50
2023-03-24T18:13:40.274Z,15.50
2023-03-24T18:16:20.692Z,15.40
2023-03-24T18:18:51.950Z,15.40
2023-03-24T18:21:21.054Z,15.40
2023-03-24T18:23:50.173Z,15.30
2023-03-24T18:26:19.800Z,15.30
2023-03-24T18:28:50.199Z,15.30
2023-03-24T18:31:21.405Z,15.30
2023-03-24T18:33:51.295Z,15.20
2023-03-24T18:36:26.121Z,15.20
2023-03-24T18:38:59.272Z,15.20
2023-03-24T18:41:30.665Z,15.20
2023-03-24T18:44:01.275Z,15.20
2023-03-24T18:46:30.873Z,15.10
2023-03-24T18:48:59.940Z,15.10
2023-03-24T18:51:29.012Z,15.10
2023-03-24T18:53:57.864Z,15.10
2023-03-24T18:56:26.754Z,15.10
2023-03-24T18:58:56.132Z,15.00
2023-03-24T19:01:26.583Z,15.00
2023-03-24T19:03:55.524Z,15.00
2023-03-24T19:06:31.046Z,14.90
2023-03-24T19:09:00.509Z,14.90
2023-03-24T19:11:29.850Z,14.90
2023-03-24T19:13:59.856Z,14.80
2023-03-24T19:16:30.318Z,14.80
2023-03-24T19:19:00.074Z,14.70
2023-03-24T19:21:29.247Z,14.70
2023-03-24T19:23:58.387Z,14.70
2023-03-24T19:26:27.322Z,14.60
2023-03-24T19:28:57.385Z,14.60
2023-03-24T19:31:26.263Z,14.50
2023-03-24T19:33:57.105Z,14.50
2023-03-24T19:36:26.487Z,14.50
2023-03-24T19:38:55.757Z,14.50
2023-03-24T19:41:26.275Z,14.50
2023-03-24T19:43:55.294Z,14.40
2023-03-24T19:46:24.381Z,14.40
2023-03-24T19:48:53.140Z,14.40
2023-03-24T19:51:24.141Z,14.40
2023-03-24T19:53:53.053Z,14.40
2023-03-24T19:56:22.224Z,14.40
2023-03-24T19:58:51.095Z,14.40
2023-03-24T20:01:21.880Z,14.40
2023-03-24T20:03:51.459Z,14.30
2023-03-24T20:06:20.646Z,14.30
2023-03-24T20:08:51.262Z,14.30
2023-03-24T20:11:20.656Z,14.30
2023-03-24T20:13:49.753Z,14.30
2023-03-24T20:16:18.847Z,14.30
2023-03-24T20:18:47.893Z,14.30
2023-03-24T20:21:22.320Z,14.30
2023-03-24T20:23:53.371Z,14.30
2023-03-24T20:26:22.329Z,14.30
2023-03-24T20:28:51.259Z,14.30
2023-03-24T20:31:20.457Z,14.30
2023-03-24T20:33:49.291Z,14.30
2023-03-24T20:36:18.203Z,14.20
2023-03-24T20:38:47.156Z,14.20
2023-03-24T20:41:19.413Z,14.20
2023-03-24T20:43:48.377Z,14.20
2023-03-24T20:46:18.995Z,14.20
2023-03-24T20:48:47.947Z,14.20
2023-03-24T20:51:17.209Z,14.20
2023-03-24T20:53:49.728Z,14.10
2023-03-24T20:56:20.513Z,14.10
2023-03-24T20:58:50.136Z,14.10
2023-03-24T21:01:21.966Z,14.10
2023-03-24T21:03:52.794Z,14.10
2023-03-24T21:06:21.911Z,14.10
2023-03-24T21:08:52.506Z,14.10
2023-03-24T21:11:22.940Z,14.10
2023-03-24T21:13:52.005Z,14.10
2023-03-24T21:16:21.045Z,14.10
2023-03-24T21:18:50.244Z,14.10
2023-03-24T21:21:19.397Z,14.10
2023-03-24T21:23:48.318Z,14.10
2023-03-24T21:26:18.300Z,14.10
2023-03-24T21:28:48.911Z,14.10
2023-03-24T21:31:21.394Z,14.10
2023-03-24T21:33:51.049Z,14.10
2023-03-24T21:36:20.757Z,14.10
2023-03-24T21:38:53.838Z,14.10
2023-03-24T21:41:23.224Z,14.10
2023-03-24T21:43:53.951Z,14.10
2023-03-24T21:46:25.787Z,14.00
2023-03-24T21:48:59.329Z,14.00
2023-03-24T21:51:34.040Z,14.00
2023-03-24T21:54:07.388Z,14.00
2023-03-24T21:56:37.833Z,14.10
2023-03-24T21:59:08.525Z,14.00
2023-03-24T22:01:37.664Z,14.00
2023-03-24T22:04:08.883Z,14.00
2023-03-24T22:06:38.483Z,14.00
2023-03-24T22:09:10.177Z,14.00
2023-03-24T22:11:42.603Z,14.00
2023-03-24T22:14:13.251Z,14.00
2023-03-24T22:16:42.557Z,14.00
2023-03-24T22:19:11.407Z,13.90
2023-03-24T22:21:40.322Z,13.90
2023-03-24T22:24:09.645Z,13.90
2023-03-24T22:26:38.509Z,13.90
2023-03-24T22:29:07.344Z,13.90
2023-03-24T22:31:42.020Z,13.90
2023-03-24T22:34:10.953Z,13.80
2023-03-24T22:36:39.992Z,13.80
2023-03-24T22:39:08.942Z,13.80
2023-03-24T22:41:38.029Z,13.70
2023-03-24T22:44:07.246Z,13.70
2023-03-24T22:46:38.154Z,13.70
2023-03-24T22:49:07.196Z,13.70
2023-03-24T22:51:36.042Z,13.70
2023-03-24T22:54:05.331Z,13.60
2023-03-24T22:56:34.636Z,13.60
2023-03-24T22:59:03.942Z,13.60
2023-03-24T23:01:33.115Z,13.60
2023-03-24T23:04:03.797Z,13.60
2023-03-24T23:06:32.694Z,13.70
2023-03-24T23:09:01.629Z,13.70
2023-03-24T23:11:30.874Z,13.60
2023-03-24T23:14:04.527Z,13.70
2023-03-24T23:16:37.609Z,13.60
2023-03-24T23:19:09.417Z,13.60
2023-03-24T23:21:38.225Z,13.60
2023-03-24T23:24:07.772Z,13.50
2023-03-24T23:26:36.633Z,13.50
2023-03-24T23:29:05.741Z,13.50
2023-03-24T23:31:35.877Z,13.50
2023-03-24T23:34:07.484Z,13.50
2023-03-24T23:36:39.764Z,13.50
2023-03-24T23:39:08.914Z,13.50
2023-03-24T23:41:38.065Z,13.40
2023-03-24T23:44:07.181Z,13.40
2023-03-24T23:46:36.217Z,13.40
2023-03-24T23:49:09.242Z,13.40
2023-03-24T23:51:39.520Z,13.50
2023-03-24T23:54:08.674Z,13.40
2023-03-24T23:56:38.483Z,13.40
2023-03-24T23:59:09.846Z,13.30
